Time;durP1;ratioP1;P1;durP2;ratioP2;P2;SDS_P1;SDS_P2;PMS_P1;PMS_P2;Temp;Humidity;BMP_temperature;BMP_pressure;BME280_temperature;BME280_humidity;BME280_pressure;Samples;Min_cycle;Max_cycle;Signal;HPM_P1;HPM_P2
2022/10/14 00:01:20;;;;;;;20.42;14.23;;;17.50;92.20;;;;;;5053490;28;20048;-75
2022/10/14 00:03:47;;;;;;;20.30;14.40;;;17.50;92.20;;;;;;5052034;28;20021;-76
2022/10/14 00:06:16;;;;;;;19.40;13.43;;;17.40;92.00;;;;;;5053505;28;20071;-77
2022/10/14 00:08:42;;;;;;;18.85;14.93;;;17.40;92.10;;;;;;5053537;28;20053;-76
2022/10/14 00:11:11;;;;;;;20.02;13.77;;;17.40;92.10;;;;;;5053508;28;20044;-77
2022/10/14 00:13:37;;;;;;;20.63;14.13;;;17.40;92.00;;;;;;5053495;28;20028;-76
2022/10/14 00:16:15;;;;;;;21.95;13.93;;;17.40;92.00;;;;;;5053285;28;20032;-78
2022/10/14 00:18:41;;;;;;;20.63;14.50;;;17.40;92.00;;;;;;5053438;28;20035;-77
2022/10/14 00:21:07;;;;;;;19.10;13.50;;;17.40;91.90;;;;;;5053156;28;20378;-78
2022/10/14 00:23:33;;;;;;;18.63;14.15;;;17.30;91.90;;;;;;5053375;28;20025;-77
2022/10/14 00:25:59;;;;;;;18.33;13.68;;;17.30;91.90;;;;;;5053045;28;20100;-75
2022/10/14 00:28:24;;;;;;;17.50;13.43;;;17.40;92.00;;;;;;5053331;28;20094;-77
2022/10/14 00:30:55;;;;;;;16.83;13.52;;;17.30;91.90;;;;;;5053319;28;20523;-75
2022/10/14 00:33:22;;;;;;;20.23;14.05;;;17.30;91.90;;;;;;5053189;28;20028;-76
2022/10/14 00:35:59;;;;;;;18.60;14.57;;;17.30;92.00;;;;;;5052864;28;20086;-78
2022/10/14 00:38:26;;;;;;;22.02;14.25;;;17.30;92.00;;;;;;5053133;28;20036;-76
2022/10/14 00:40:53;;;;;;;16.48;13.23;;;17.30;92.00;;;;;;5053141;28;20028;-75
2022/10/14 00:43:20;;;;;;;20.63;14.45;;;17.20;91.90;;;;;;5053105;28;20354;-75
2022/10/14 00:45:45;;;;;;;17.73;13.32;;;17.20;92.00;;;;;;5051777;28;20462;-76
2022/10/14 00:48:12;;;;;;;18.33;14.25;;;17.20;92.10;;;;;;5053148;28;20021;-77
2022/10/14 00:50:40;;;;;;;19.65;14.25;;;17.20;92.20;;;;;;5052946;28;20040;-76
2022/10/14 00:53:07;;;;;;;17.77;14.38;;;17.20;92.10;;;;;;5053136;28;20421;-75
2022/10/14 00:55:33;;;;;;;21.10;14.57;;;17.10;92.20;;;;;;5052929;28;20044;-78
2022/10/14 00:57:59;;;;;;;19.90;13.93;;;17.10;92.30;;;;;;5052466;28;20510;-76
2022/10/14 01:00:25;;;;;;;17.25;13.75;;;17.00;92.30;;;;;;5052362;28;20033;-76
2022/10/14 01:02:50;;;;;;;16.48;13.02;;;17.00;92.40;;;;;;5053655;28;20106;-76
2022/10/14 01:05:19;;;;;;;18.25;13.60;;;17.00;92.50;;;;;;5055552;28;20108;-76
2022/10/14 01:07:45;;;;;;;18.48;13.88;;;17.00;92.50;;;;;;5055637;28;20055;-75
2022/10/14 01:10:14;;;;;;;20.38;13.45;;;17.00;92.50;;;;;;5055308;28;20056;-76
2022/10/14 01:12:59;;;;;;;17.02;13.63;;;17.10;92.50;;;;;;5055420;28;20040;-76
2022/10/14 01:15:46;;;;;;;20.10;14.43;;;17.10;92.50;;;;;;5055643;28;20033;-77
2022/10/14 01:18:48;;;;;;;19.95;13.50;;;17.00;92.50;;;;;;5053995;28;20029;-77
2022/10/14 01:21:57;;;;;;;19.38;13.35;;;17.00;92.40;;;;;;5025397;28;20112;-75
2022/10/14 01:24:53;;;;;;;18.77;14.73;;;16.90;92.40;;;;;;5037840;28;20536;-76
2022/10/14 01:27:36;;;;;;;23.13;15.50;;;16.90;92.50;;;;;;5055362;28;20068;-77
2022/10/14 01:30:10;;;;;;;20.55;14.15;;;16.90;92.50;;;;;;5055587;28;20032;-77
2022/10/14 01:32:56;;;;;;;18.83;13.88;;;16.90;92.60;;;;;;5055263;28;20021;-76
2022/10/14 01:35:39;;;;;;;17.48;13.25;;;16.80;92.70;;;;;;5014305;28;20037;-76
2022/10/14 01:38:31;;;;;;;18.35;14.52;;;16.90;92.70;;;;;;5055438;28;20025;-75
2022/10/14 01:40:59;;;;;;;17.42;13.70;;;16.90;92.80;;;;;;5054469;28;20501;-76
2022/10/14 01:43:28;;;;;;;18.15;14.52;;;16.90;92.70;;;;;;5055049;28;20025;-76
2022/10/14 01:45:56;;;;;;;20.38;14.35;;;16.80;92.70;;;;;;5054730;28;20100;-77
2022/10/14 01:48:26;;;;;;;24.10;14.13;;;16.80;92.80;;;;;;5055071;28;20082;-77
2022/10/14 01:50:56;;;;;;;17.48;13.75;;;16.80;92.80;;;;;;5054724;28;20048;-77
2022/10/14 01:53:27;;;;;;;19.20;15.18;;;16.80;92.80;;;;;;5054809;28;20363;-76
2022/10/14 01:55:55;;;;;;;22.00;14.52;;;16.70;92.80;;;;;;5054839;28;20033;-76
2022/10/14 01:58:26;;;;;;;20.75;14.48;;;16.70;92.80;;;;;;5013880;28;1194794;-75
2022/10/14 02:00:52;;;;;;;21.38;14.23;;;16.70;92.90;;;;;;5055856;28;20075;-77
2022/10/14 02:03:18;;;;;;;20.45;14.80;;;16.60;92.90;;;;;;5056042;28;20017;-77
2022/10/14 02:05:57;;;;;;;20.83;14.10;;;16.60;92.90;;;;;;5055824;28;20562;-76
2022/10/14 02:08:53;;;;;;;22.92;14.27;;;16.60;92.90;;;;;;5055773;28;20028;-75
2022/10/14 02:11:21;;;;;;;19.23;15.18;;;16.70;92.90;;;;;;5055921;28;20032;-77
2022/10/14 02:14:11;;;;;;;22.83;13.90;;;16.70;93.00;;;;;;5053936;28;20036;-77
2022/10/14 02:16:57;;;;;;;20.85;14.02;;;16.60;92.90;;;;;;5055591;28;20055;-77
2022/10/14 02:19:32;;;;;;;24.50;14.98;;;16.70;93.00;;;;;;5055322;28;20466;-76
2022/10/14 02:21:57;;;;;;;19.48;13.98;;;16.60;93.00;;;;;;5055393;28;20028;-75
2022/10/14 02:24:27;;;;;;;18.42;13.85;;;16.60;93.00;;;;;;5053950;28;20025;-74
2022/10/14 02:26:56;;;;;;;20.00;14.70;;;16.60;93.00;;;;;;5055484;28;20031;-76
2022/10/14 02:29:23;;;;;;;17.75;14.85;;;16.60;93.10;;;;;;5055740;28;20025;-76
2022/10/14 02:31:50;;;;;;;19.63;15.23;;;16.60;93.10;;;;;;5054063;28;20021;-74
2022/10/14 02:34:20;;;;;;;28.50;15.55;;;16.60;93.20;;;;;;5055127;28;20568;-77
2022/10/14 02:36:47;;;;;;;22.42;15.35;;;16.60;93.20;;;;;;5055190;28;20025;-76
2022/10/14 02:39:18;;;;;;;21.17;15.15;;;16.60;93.20;;;;;;5053929;28;20076;-75
2022/10/14 02:41:44;;;;;;;20.70;15.65;;;16.60;93.30;;;;;;5055160;28;20029;-77
2022/10/14 02:44:09;;;;;;;21.35;16.25;;;16.50;93.30;;;;;;5055156;28;20085;-74
2022/10/14 02:46:39;;;;;;;20.23;15.40;;;16.50;93.20;;;;;;5054733;28;20111;-75
2022/10/14 02:49:05;;;;;;;22.40;16.38;;;16.50;93.30;;;;;;5055035;28;20029;-77
2022/10/14 02:51:31;;;;;;;20.95;15.18;;;16.50;93.40;;;;;;5055072;28;20040;-75
2022/10/14 02:53:56;;;;;;;23.77;15.85;;;16.50;93.30;;;;;;5053507;28;20027;-75
2022/10/14 02:56:22;;;;;;;23.10;15.77;;;16.50;93.30;;;;;;5054598;28;20059;-75
2022/10/14 02:58:48;;;;;;;26.30;15.80;;;16.40;93.30;;;;;;5054900;28;20087;-76
2022/10/14 03:01:14;;;;;;;25.27;16.83;;;16.40;93.40;;;;;;5054842;28;20029;-73
2022/10/14 03:03:39;;;;;;;24.05;15.65;;;16.40;93.40;;;;;;5054977;28;20013;-75
2022/10/14 03:06:05;;;;;;;27.27;15.88;;;16.40;93.50;;;;;;5054696;28;20425;-74
2022/10/14 03:08:31;;;;;;;18.48;14.60;;;16.40;93.50;;;;;;5054854;28;20039;-75
2022/10/14 03:10:57;;;;;;;20.30;14.82;;;16.40;93.50;;;;;;5054744;28;20044;-76
2022/10/14 03:13:23;;;;;;;20.98;15.48;;;16.40;93.50;;;;;;5054701;28;20097;-76
2022/10/14 03:15:49;;;;;;;23.33;15.70;;;16.30;93.50;;;;;;5054451;28;20037;-78
2022/10/14 03:18:15;;;;;;;19.52;14.85;;;16.30;93.50;;;;;;5053189;28;20021;-76
2022/10/14 03:20:43;;;;;;;20.98;16.05;;;16.30;93.50;;;;;;5054282;28;20028;-75
2022/10/14 03:23:09;;;;;;;23.63;16.92;;;16.30;93.50;;;;;;5054162;28;20029;-75
2022/10/14 03:25:35;;;;;;;24.25;15.25;;;16.30;93.60;;;;;;5053528;28;20107;-75
2022/10/14 03:28:01;;;;;;;22.75;16.38;;;16.30;93.50;;;;;;5054351;28;20579;-76
2022/10/14 03:30:26;;;;;;;26.48;16.13;;;16.20;93.40;;;;;;5054365;28;20017;-75
2022/10/14 03:32:52;;;;;;;23.30;15.60;;;16.20;93.40;;;;;;5054209;28;20067;-75
2022/10/14 03:35:20;;;;;;;22.52;16.05;;;16.20;93.50;;;;;;5053850;28;20025;-77
2022/10/14 03:37:45;;;;;;;20.00;15.55;;;16.20;93.50;;;;;;5054188;28;20021;-74
2022/10/14 03:40:11;;;;;;;21.45;15.93;;;16.20;93.60;;;;;;5054049;28;20079;-75
2022/10/14 03:42:37;;;;;;;24.17;15.20;;;16.20;93.70;;;;;;5052620;28;20029;-77
2022/10/14 03:45:03;;;;;;;21.35;15.23;;;16.10;93.70;;;;;;5053942;28;20025;-76
2022/10/14 03:47:29;;;;;;;21.75;13.95;;;16.10;93.60;;;;;;5053045;28;20029;-76
2022/10/14 03:49:55;;;;;;;19.98;15.43;;;16.10;93.60;;;;;;5053860;28;20040;-78
2022/10/14 03:52:20;;;;;;;20.70;15.35;;;16.10;93.60;;;;;;5053684;28;20055;-75
2022/10/14 03:54:46;;;;;;;20.45;15.00;;;16.10;93.70;;;;;;5053651;28;20204;-76
2022/10/14 03:57:12;;;;;;;19.92;14.98;;;16.10;93.70;;;;;;5053470;28;20473;-76
2022/10/14 03:59:38;;;;;;;21.00;14.85;;;16.00;93.80;;;;;;5052734;28;20067;-76
2022/10/14 04:02:04;;;;;;;21.65;15.90;;;16.00;93.80;;;;;;5052895;28;20410;-77
2022/10/14 04:04:29;;;;;;;19.08;14.93;;;16.00;93.80;;;;;;5053554;28;20029;-75
2022/10/14 04:06:56;;;;;;;23.35;15.50;;;16.10;93.90;;;;;;5053647;28;20459;-76
2022/10/14 04:09:22;;;;;;;19.42;15.68;;;16.00;93.90;;;;;;5053441;28;20050;-75
2022/10/14 04:11:48;;;;;;;24.38;15.77;;;16.00;93.90;;;;;;5052166;28;20116;-77
2022/10/14 04:14:13;;;;;;;19.08;15.23;;;16.00;93.80;;;;;;5053615;28;20017;-77
2022/10/14 04:16:39;;;;;;;18.20;14.88;;;16.00;93.80;;;;;;5053347;28;20048;-77
2022/10/14 04:19:05;;;;;;;18.83;14.30;;;16.00;93.80;;;;;;5053198;28;20021;-76
2022/10/14 04:21:30;;;;;;;24.67;15.23;;;16.00;93.90;;;;;;5053228;28;20036;-76
2022/10/14 04:23:56;;;;;;;19.08;15.05;;;16.00;93.90;;;;;;5053244;28;20048;-76
2022/10/14 04:26:22;;;;;;;23.15;14.30;;;15.90;93.80;;;;;;5053021;28;20394;-77
2022/10/14 04:28:47;;;;;;;22.42;14.95;;;15.90;93.80;;;;;;5053325;28;20021;-76
2022/10/14 04:31:13;;;;;;;24.05;14.90;;;15.90;93.90;;;;;;5051633;28;20524;-76
2022/10/14 04:33:39;;;;;;;20.40;15.18;;;15.90;93.90;;;;;;5053040;28;20205;-76
2022/10/14 04:36:05;;;;;;;21.13;14.80;;;15.90;93.90;;;;;;5051559;28;20466;-78
2022/10/14 04:38:32;;;;;;;21.27;14.52;;;15.80;93.80;;;;;;5053171;28;20020;-78
2022/10/14 04:40:58;;;;;;;22.83;14.18;;;15.90;94.00;;;;;;5053458;28;20112;-78
2022/10/14 04:43:25;;;;;;;20.38;15.80;;;15.80;93.90;;;;;;5053096;28;20048;-78
2022/10/14 04:45:51;;;;;;;20.55;14.82;;;15.70;93.80;;;;;;5052814;28;20025;-76
2022/10/14 04:48:17;;;;;;;21.40;14.60;;;15.70;94.00;;;;;;5052686;28;20044;-78
2022/10/14 04:50:43;;;;;;;24.35;14.55;;;15.70;94.00;;;;;;5052880;28;20386;-78
2022/10/14 04:53:09;;;;;;;20.58;15.68;;;15.60;94.00;;;;;;5053005;28;20028;-76
2022/10/14 04:55:35;;;;;;;24.73;15.23;;;15.60;93.90;;;;;;5052716;28;20115;-78
2022/10/14 04:58:01;;;;;;;22.70;14.85;;;15.60;94.00;;;;;;5052533;28;20041;-77
2022/10/14 05:00:27;;;;;;;23.13;14.77;;;15.70;94.10;;;;;;5052576;28;20033;-77
2022/10/14 05:02:53;;;;;;;17.58;14.48;;;15.60;94.10;;;;;;5052464;28;20463;-76
2022/10/14 05:05:19;;;;;;;21.00;15.52;;;15.60;94.20;;;;;;5052737;28;20108;-76
2022/10/14 05:07:44;;;;;;;24.08;15.10;;;15.60;94.20;;;;;;5052707;28;20021;-78
2022/10/14 05:10:10;;;;;;;21.35;16.08;;;15.60;94.30;;;;;;5052402;28;20112;-77
2022/10/14 05:12:37;;;;;;;24.83;15.35;;;15.60;94.30;;;;;;5052981;28;20025;-79
2022/10/14 05:15:04;;;;;;;21.63;15.52;;;15.60;94.40;;;;;;5052834;28;20116;-74
2022/10/14 05:17:31;;;;;;;18.75;15.13;;;15.60;94.20;;;;;;5052629;28;20029;-76
2022/10/14 05:19:57;;;;;;;22.10;14.70;;;15.60;94.20;;;;;;5052982;28;20040;-74
2022/10/14 05:22:23;;;;;;;27.02;15.88;;;15.60;94.20;;;;;;5052533;28;20463;-76
2022/10/14 05:24:49;;;;;;;21.70;15.75;;;15.50;94.30;;;;;;5052609;28;20031;-78
2022/10/14 05:27:14;;;;;;;21.23;15.48;;;15.40;94.30;;;;;;5051188;28;20025;-74
2022/10/14 05:29:40;;;;;;;20.05;14.77;;;15.40;94.40;;;;;;5052710;28;20021;-75
2022/10/14 05:32:06;;;;;;;22.20;16.15;;;15.30;94.40;;;;;;5052824;28;20070;-76
2022/10/14 05:34:32;;;;;;;25.08;16.95;;;15.30;94.40;;;;;;5052337;28;20029;-76
2022/10/14 05:36:57;;;;;;;23.85;15.55;;;15.40;94.50;;;;;;5052362;28;20029;-77
2022/10/14 05:39:23;;;;;;;25.80;16.92;;;15.40;94.50;;;;;;5051042;28;20094;-75
2022/10/14 05:41:49;;;;;;;26.85;16.40;;;15.50;94.60;;;;;;5052492;28;20032;-76
2022/10/14 05:44:14;;;;;;;22.10;16.42;;;15.50;94.40;;;;;;5052568;28;20039;-74
2022/10/14 05:46:41;;;;;;;28.48;16.10;;;15.50;94.40;;;;;;5050711;28;20029;-78
2022/10/14 05:49:06;;;;;;;22.20;16.45;;;15.50;94.40;;;;;;5054636;28;20032;-77
2022/10/14 05:51:32;;;;;;;24.30;16.88;;;15.50;94.40;;;;;;5055783;28;20394;-74
2022/10/14 05:53:59;;;;;;;25.60;16.58;;;15.50;94.40;;;;;;5054645;28;20025;-78
2022/10/14 05:56:24;;;;;;;22.60;15.95;;;15.50;94.30;;;;;;5055357;28;20091;-77
2022/10/14 05:58:50;;;;;;;23.35;16.88;;;15.60;94.40;;;;;;5055740;28;20017;-76
2022/10/14 06:01:16;;;;;;;22.42;17.05;;;15.60;94.30;;;;;;5055866;28;20036;-76
2022/10/14 06:03:41;;;;;;;25.40;17.90;;;15.70;94.30;;;;;;5055584;28;20029;-77
2022/10/14 06:06:13;;;;;;;25.20;17.40;;;15.70;94.30;;;;;;5055844;28;20103;-75
2022/10/14 06:08:39;;;;;;;24.92;17.55;;;15.80;94.20;;;;;;5055642;28;20021;-76
2022/10/14 06:11:05;;;;;;;25.83;17.50;;;15.90;94.10;;;;;;5055694;28;20044;-78
2022/10/14 06:13:30;;;;;;;25.67;19.10;;;15.90;94.00;;;;;;5055792;28;20036;-75
2022/10/14 06:16:01;;;;;;;24.77;17.95;;;15.90;94.10;;;;;;5054034;28;20041;-78
2022/10/14 06:18:26;;;;;;;24.98;17.80;;;15.90;93.70;;;;;;5055355;28;20059;-75
2022/10/14 06:20:52;;;;;;;26.65;18.10;;;16.00;93.70;;;;;;5055269;28;20544;-76
2022/10/14 06:23:18;;;;;;;25.90;17.42;;;16.00;93.60;;;;;;5055422;28;20392;-77
2022/10/14 06:25:44;;;;;;;24.15;17.52;;;16.10;93.50;;;;;;5055129;28;20025;-77
2022/10/14 06:28:09;;;;;;;28.77;17.58;;;16.20;93.40;;;;;;5055456;28;20063;-77
2022/10/14 06:30:35;;;;;;;30.45;20.02;;;16.20;93.20;;;;;;5055255;28;20478;-78
2022/10/14 06:33:01;;;;;;;25.05;17.92;;;16.40;93.00;;;;;;5055289;28;20044;-77
2022/10/14 06:35:27;;;;;;;24.10;17.75;;;16.50;92.90;;;;;;5055016;28;20478;-78
2022/10/14 06:37:52;;;;;;;25.60;17.95;;;16.60;92.70;;;;;;5055642;28;20033;-77
2022/10/14 06:40:18;;;;;;;26.30;18.17;;;16.70;92.50;;;;;;5054855;28;20040;-77
2022/10/14 06:42:44;;;;;;;25.25;17.40;;;16.90;92.40;;;;;;5054929;28;20021;-78
2022/10/14 06:45:10;;;;;;;24.60;15.70;;;16.90;92.10;;;;;;5055038;28;20108;-78
2022/10/14 06:47:36;;;;;;;25.20;17.08;;;17.00;91.90;;;;;;5055102;28;20078;-77
2022/10/14 06:50:02;;;;;;;25.65;16.45;;;17.10;91.90;;;;;;5055174;28;20432;-77
2022/10/14 06:52:28;;;;;;;25.33;17.15;;;17.10;91.60;;;;;;5054823;28;20612;-77
2022/10/14 06:54:53;;;;;;;26.60;17.33;;;17.20;91.60;;;;;;5054435;28;20112;-77
2022/10/14 06:57:19;;;;;;;25.45;17.73;;;17.30;91.50;;;;;;5054355;28;20044;-79
2022/10/14 06:59:45;;;;;;;23.13;17.42;;;17.40;91.30;;;;;;5053634;28;20466;-78
2022/10/14 07:02:10;;;;;;;23.45;16.60;;;17.60;91.20;;;;;;5054325;28;20433;-77
2022/10/14 07:04:38;;;;;;;29.30;17.00;;;17.70;91.00;;;;;;5054371;28;20029;-77
2022/10/14 07:07:06;;;;;;;26.42;16.40;;;17.80;90.80;;;;;;5054111;28;20017;-77
2022/10/14 07:09:31;;;;;;;27.38;17.75;;;17.70;90.40;;;;;;5052940;28;20485;-77
2022/10/14 07:11:57;;;;;;;24.80;17.40;;;17.80;90.50;;;;;;5054509;28;20052;-78
2022/10/14 07:14:23;;;;;;;26.23;16.92;;;17.80;90.40;;;;;;5054067;28;20048;-77
2022/10/14 07:16:48;;;;;;;22.42;16.38;;;17.90;90.40;;;;;;5052598;28;20036;-76
2022/10/14 07:19:14;;;;;;;20.98;16.73;;;18.10;90.30;;;;;;5053596;28;20029;-77
2022/10/14 07:21:41;;;;;;;25.73;16.63;;;18.20;90.10;;;;;;5053592;28;20028;-76
2022/10/14 07:24:08;;;;;;;26.17;17.00;;;18.20;89.60;;;;;;5053241;28;20120;-77
2022/10/14 07:26:34;;;;;;;28.70;16.83;;;18.30;89.20;;;;;;5053367;28;20096;-77
2022/10/14 07:28:59;;;;;;;27.80;16.25;;;18.30;88.80;;;;;;5053458;28;20116;-76
2022/10/14 07:31:25;;;;;;;22.70;16.73;;;18.30;88.60;;;;;;5053378;28;20048;-77
2022/10/14 07:33:54;;;;;;;22.80;16.17;;;18.40;88.70;;;;;;5053334;28;20021;-77
2022/10/14 07:36:20;;;;;;;24.52;16.45;;;18.40;88.50;;;;;;5053213;28;20111;-77
2022/10/14 07:38:47;;;;;;;22.10;16.88;;;18.40;88.40;;;;;;5051745;28;20025;-78
2022/10/14 07:41:16;;;;;;;27.02;17.02;;;18.40;88.10;;;;;;5053596;28;20024;-78
2022/10/14 07:43:44;;;;;;;23.00;16.65;;;18.30;87.70;;;;;;5053266;28;20025;-78
2022/10/14 07:46:11;;;;;;;23.02;17.42;;;18.30;87.60;;;;;;5053130;28;20045;-79
2022/10/14 07:48:38;;;;;;;23.20;16.50;;;18.30;87.70;;;;;;5053052;28;20035;-75
2022/10/14 07:51:05;;;;;;;21.58;15.77;;;18.40;87.90;;;;;;5053261;28;20028;-76
2022/10/14 07:53:31;;;;;;;22.55;17.52;;;18.30;87.60;;;;;;5051621;28;20118;-75
2022/10/14 07:55:57;;;;;;;22.83;16.02;;;18.30;87.40;;;;;;5051605;28;20556;-74
2022/10/14 07:58:25;;;;;;;24.23;16.58;;;18.20;87.40;;;;;;5052676;28;20080;-78
2022/10/14 08:00:52;;;;;;;22.40;17.65;;;18.20;87.40;;;;;;5052823;28;20032;-78
2022/10/14 08:03:19;;;;;;;23.15;17.90;;;18.20;87.40;;;;;;5052862;28;20028;-78
2022/10/14 08:05:46;;;;;;;25.33;16.75;;;18.20;87.50;;;;;;5052952;28;20025;-78
2022/10/14 08:08:13;;;;;;;25.23;16.65;;;18.20;87.60;;;;;;5053086;28;20092;-79
2022/10/14 08:10:40;;;;;;;22.80;16.98;;;18.20;87.70;;;;;;5052708;28;20478;-79
2022/10/14 08:13:06;;;;;;;21.80;16.77;;;18.10;87.40;;;;;;5051270;28;20041;-79
2022/10/14 08:15:37;;;;;;;31.38;17.85;;;18.10;87.50;;;;;;5052390;28;20052;-79
2022/10/14 08:18:04;;;;;;;25.77;16.20;;;18.10;87.50;;;;;;5052483;28;20462;-78
2022/10/14 08:20:31;;;;;;;26.63;17.52;;;18.20;87.60;;;;;;5052743;28;20040;-80
2022/10/14 08:22:57;;;;;;;23.85;18.02;;;18.20;87.60;;;;;;5052861;28;20021;-77
2022/10/14 08:25:23;;;;;;;26.13;17.00;;;18.30;87.50;;;;;;5052543;28;20053;-76
2022/10/14 08:27:53;;;;;;;23.48;16.70;;;18.30;87.40;;;;;;5051203;28;20025;-78
2022/10/14 08:30:19;;;;;;;24.92;17.52;;;18.40;87.30;;;;;;5052221;28;20017;-77
2022/10/14 08:32:47;;;;;;;24.27;16.83;;;18.40;87.20;;;;;;5051996;28;20029;-79
2022/10/14 08:35:13;;;;;;;30.65;18.00;;;18.40;87.10;;;;;;5052377;28;20458;-77
2022/10/14 08:37:39;;;;;;;26.35;17.60;;;18.50;87.10;;;;;;5052478;28;20041;-78
2022/10/14 08:40:05;;;;;;;22.38;16.25;;;18.50;87.20;;;;;;5051886;28;20334;-77
2022/10/14 08:42:54;;;;;;;24.77;17.40;;;18.60;87.10;;;;;;5050639;28;20029;-77
2022/10/14 08:45:50;;;;;;;20.02;15.57;;;18.60;87.20;;;;;;5052058;28;20334;-77
2022/10/14 08:48:23;;;;;;;22.02;15.35;;;18.60;86.70;;;;;;5048520;28;20443;-75
2022/10/14 08:50:55;;;;;;;20.95;14.10;;;18.60;86.50;;;;;;5053553;28;20017;-76
2022/10/14 08:53:32;;;;;;;23.05;15.95;;;18.60;86.10;;;;;;5053365;28;20028;-78
2022/10/14 08:55:59;;;;;;;21.30;14.60;;;18.70;86.30;;;;;;5052320;28;20568;-79
2022/10/14 08:58:49;;;;;;;23.40;14.75;;;18.70;86.10;;;;;;5051231;28;20486;-79
2022/10/14 09:01:24;;;;;;;21.05;13.75;;;18.80;86.00;;;;;;5052685;28;20029;-79
2022/10/14 09:03:55;;;;;;;17.67;12.75;;;18.90;86.20;;;;;;5052227;28;20027;-78
2022/10/14 09:06:28;;;;;;;21.35;14.27;;;19.00;85.40;;;;;;5051879;28;20031;-79
2022/10/14 09:09:06;;;;;;;19.40;12.35;;;19.00;85.00;;;;;;5050871;28;20029;-79
2022/10/14 09:11:39;;;;;;;20.98;13.48;;;19.10;84.90;;;;;;5051980;28;20511;-78
2022/10/14 09:14:10;;;;;;;20.80;13.80;;;19.20;84.30;;;;;;5050868;28;20104;-78
2022/10/14 09:16:39;;;;;;;17.48;12.93;;;19.30;84.40;;;;;;5053657;28;20275;-78
2022/10/14 09:19:21;;;;;;;17.48;11.07;;;19.30;83.80;;;;;;5052131;28;20021;-76
2022/10/14 09:21:53;;;;;;;19.17;11.45;;;19.40;83.40;;;;;;5051816;28;20017;-78
2022/10/14 09:24:22;;;;;;;18.73;10.50;;;19.50;82.30;;;;;;5054519;28;20522;-79
2022/10/14 09:26:53;;;;;;;16.95;10.43;;;19.60;81.30;;;;;;5055864;28;20029;-77
2022/10/14 09:29:40;;;;;;;13.18;10.18;;;19.70;79.80;;;;;;5055904;28;20048;-77
2022/10/14 09:32:11;;;;;;;15.43;10.60;;;19.80;80.30;;;;;;5055863;28;20029;-79
2022/10/14 09:34:55;;;;;;;14.63;10.32;;;19.90;78.80;;;;;;5055619;28;20082;-75
2022/10/14 09:37:35;;;;;;;19.10;11.90;;;20.00;77.40;;;;;;5054285;28;20135;-78
2022/10/14 09:40:12;;;;;;;21.67;11.35;;;20.10;78.30;;;;;;5055795;28;20021;-76
2022/10/14 09:42:46;;;;;;;20.92;11.30;;;20.20;77.70;;;;;;5055735;28;20052;-74
2022/10/14 09:45:14;;;;;;;21.80;11.73;;;20.30;76.90;;;;;;5054213;28;20037;-73
2022/10/14 09:47:45;;;;;;;22.13;11.50;;;20.40;76.80;;;;;;5055961;28;20382;-73
2022/10/14 09:50:22;;;;;;;20.23;12.10;;;20.50;76.60;;;;;;5055461;28;20063;-77
2022/10/14 09:53:14;;;;;;;17.42;11.15;;;20.60;75.80;;;;;;5055368;28;20417;-79
2022/10/14 09:55:48;;;;;;;16.38;11.02;;;20.70;74.70;;;;;;5055274;28;20045;-77
2022/10/14 09:58:28;;;;;;;17.27;11.30;;;20.80;74.30;;;;;;5055081;28;20041;-77
2022/10/14 10:00:59;;;;;;;17.63;10.93;;;20.90;73.90;;;;;;5055001;28;20394;-79
2022/10/14 10:03:26;;;;;;;15.20;9.85;;;20.90;72.50;;;;;;5053635;28;20064;-77
2022/10/14 10:06:27;;;;;;;15.85;11.15;;;21.00;72.70;;;;;;5055399;28;20029;-78
2022/10/14 10:08:54;;;;;;;17.42;11.35;;;21.10;71.80;;;;;;5055829;28;20474;-77
2022/10/14 10:11:37;;;;;;;18.60;11.55;;;21.10;71.90;;;;;;5055235;28;20021;-79
2022/10/14 10:14:21;;;;;;;14.02;11.25;;;21.20;71.70;;;;;;5053828;28;20021;-76
2022/10/14 10:16:48;;;;;;;14.30;10.52;;;21.20;71.00;;;;;;5054685;28;20446;-79
2022/10/14 10:19:27;;;;;;;14.95;10.95;;;21.30;71.70;;;;;;5054777;28;20365;-80
2022/10/14 10:21:54;;;;;;;17.27;11.35;;;21.40;71.10;;;;;;5054922;28;20355;-74
2022/10/14 10:24:22;;;;;;;18.27;11.23;;;21.50;71.20;;;;;;5054846;28;20104;-79
2022/10/14 10:26:51;;;;;;;17.83;11.85;;;21.60;70.90;;;;;;5054706;28;20021;-77
2022/10/14 10:29:31;;;;;;;18.42;10.68;;;21.60;71.10;;;;;;5055315;28;20493;-79
2022/10/14 10:32:07;;;;;;;17.65;11.88;;;21.70;70.60;;;;;;5054543;28;20051;-73
2022/10/14 10:34:58;;;;;;;14.35;10.02;;;21.80;73.20;;;;;;5054290;28;20025;-74
2022/10/14 10:37:32;;;;;;;18.38;10.80;;;21.90;68.60;;;;;;5054561;28;20029;-77
2022/10/14 10:40:06;;;;;;;16.17;11.52;;;21.90;71.50;;;;;;5054476;28;20037;-77
2022/10/14 10:42:52;;;;;;;13.55;10.25;;;22.00;70.20;;;;;;5054700;28;20367;-79
2022/10/14 10:45:58;;;;;;;16.60;10.38;;;22.10;68.40;;;;;;5054405;28;20035;-78
2022/10/14 10:48:45;;;;;;;17.92;10.55;;;22.20;67.90;;;;;;5054830;28;20021;-80
2022/10/14 10:51:25;;;;;;;16.17;10.23;;;22.40;67.60;;;;;;5053052;28;20029;-76
2022/10/14 10:54:21;;;;;;;19.02;10.73;;;22.50;69.20;;;;;;5054622;28;20021;-77
2022/10/14 10:56:51;;;;;;;15.52;9.57;;;22.50;66.30;;;;;;5055370;28;20041;-79
2022/10/14 10:59:35;;;;;;;16.08;10.55;;;22.60;68.10;;;;;;5054622;28;20379;-76
2022/10/14 11:02:38;;;;;;;14.05;8.75;;;22.70;65.20;;;;;;5054196;28;20029;-78
2022/10/14 11:05:16;;;;;;;15.02;9.55;;;22.80;63.40;;;;;;5054549;28;20092;-78
2022/10/14 11:14:11;;;;;;;14.02;8.63;;;23.00;62.50;;;;;;5054537;28;20035;-77
2022/10/14 11:17:05;;;;;;;15.45;8.15;;;23.10;62.10;;;;;;5054146;28;20033;-76
2022/10/14 11:19:51;;;;;;;12.13;8.67;;;23.20;59.80;;;;;;5054338;28;20029;-76
2022/10/14 11:22:32;;;;;;;11.00;7.97;;;23.30;62.30;;;;;;5052644;28;20437;-74
2022/10/14 11:25:37;;;;;;;14.40;8.20;;;23.40;61.10;;;;;;5053561;28;20438;-76
2022/10/14 11:28:50;;;;;;;16.83;8.48;;;23.40;59.70;;;;;;5023184;28;20493;-72
2022/10/14 11:31:26;;;;;;;33.47;11.57;;;23.50;61.00;;;;;;4992345;28;20034;-76
2022/10/14 11:34:13;;;;;;;42.97;11.52;;;23.60;61.40;;;;;;4992728;28;20372;-79
2022/10/14 11:37:02;;;;;;;14.02;8.00;;;23.70;59.50;;;;;;5038192;28;20075;-79
2022/10/14 11:39:47;;;;;;;12.98;8.15;;;23.80;59.30;;;;;;5053906;28;20540;-79
2022/10/14 11:42:12;;;;;;;12.10;7.60;;;23.80;59.90;;;;;;5053821;28;20029;-74
2022/10/14 11:44:43;;;;;;;14.27;7.25;;;23.80;60.10;;;;;;5052542;28;20429;-76
2022/10/14 11:47:24;;;;;;;14.98;7.68;;;23.90;59.50;;;;;;5053122;28;20474;-74
2022/10/14 11:49:52;;;;;;;14.50;7.32;;;23.90;59.30;;;;;;5053541;28;20033;-75
2022/10/14 11:52:28;;;;;;;49.20;10.40;;;24.00;58.80;;;;;;5053285;28;20105;-74
2022/10/14 11:55:09;;;;;;;27.83;9.93;;;24.00;58.40;;;;;;5053315;28;20024;-78
2022/10/14 11:57:40;;;;;;;11.00;7.20;;;24.10;58.40;;;;;;5053223;28;20117;-76
2022/10/14 12:00:14;;;;;;;11.27;6.63;;;24.20;58.20;;;;;;5051806;28;20474;-79
2022/10/14 12:03:08;;;;;;;12.27;7.68;;;24.20;57.60;;;;;;5051767;28;20024;-76
2022/10/14 12:05:39;;;;;;;12.60;7.25;;;24.30;56.60;;;;;;5053430;28;20021;-77
2022/10/14 12:08:24;;;;;;;25.67;8.00;;;24.40;57.40;;;;;;5053582;28;20100;-78
2022/10/14 12:11:19;;;;;;;263.75;21.88;;;24.30;57.20;;;;;;5053486;28;20056;-79
2022/10/14 12:13:53;;;;;;;48.58;8.40;;;24.40;56.00;;;;;;5053303;28;20112;-80
2022/10/14 12:16:23;;;;;;;;;;;24.50;56.90;;;;;;5053875;28;20037;-80
2022/10/14 12:18:54;;;;;;;78.18;11.48;;;24.50;55.50;;;;;;5053084;28;19912;-80
2022/10/14 12:21:39;;;;;;;17.98;7.10;;;24.70;56.80;;;;;;5053449;28;20106;-75
2022/10/14 12:24:13;;;;;;;169.02;17.45;;;24.70;55.70;;;;;;5053335;28;20450;-73
2022/10/14 12:26:53;;;;;;;151.00;15.07;;;24.80;56.40;;;;;;5035184;28;20473;-75
2022/10/14 12:29:22;;;;;;;17.58;6.35;;;24.90;55.60;;;;;;5053086;28;20031;-75
2022/10/14 12:32:06;;;;;;;11.77;6.10;;;24.90;55.60;;;;;;5052991;28;20045;-74
2022/10/14 12:34:36;;;;;;;11.82;6.00;;;24.90;55.10;;;;;;5053033;28;20021;-74
2022/10/14 12:37:24;;;;;;;12.65;5.75;;;24.90;54.20;;;;;;5052823;28;20079;-72
2022/10/14 12:40:13;;;;;;;10.82;5.97;;;24.90;52.60;;;;;;5052649;28;20079;-75
2022/10/14 12:43:03;;;;;;;16.48;6.57;;;25.00;54.40;;;;;;5041827;28;20482;-77
2022/10/14 12:45:34;;;;;;;10.43;5.47;;;25.10;53.00;;;;;;5052822;28;20021;-72
2022/10/14 12:48:25;;;;;;;13.50;6.45;;;25.10;53.60;;;;;;5052737;28;20071;-75
2022/10/14 12:51:15;;;;;;;11.63;5.75;;;25.20;53.60;;;;;;5052429;28;20037;-75
2022/10/14 12:54:11;;;;;;;9.77;5.35;;;25.30;53.10;;;;;;5050516;28;20517;-75
2022/10/14 12:56:56;;;;;;;9.70;5.03;;;25.30;52.40;;;;;;5052942;28;20029;-74